Time;durP1;ratioP1;P1;durP2;ratioP2;P2;SDS_P1;SDS_P2;PMS_P1;PMS_P2;Temp;Humidity;BMP_temperature;BMP_pressure;BME280_temperature;BME280_humidity;BME280_pressure;Samples;Min_cycle;Max_cycle;Signal;HPM_P1;HPM_P2
2024/01/01 00:00:46;;;;;;;123.57;68.00;;;;;;;4.30;62.92;95006.22;5105464;28;20023;-78
2024/01/01 00:03:11;;;;;;;115.65;62.22;;;;;;;4.36;63.02;95010.06;5105388;28;20024;-78
2024/01/01 00:05:37;;;;;;;101.45;59.58;;;;;;;4.39;62.93;95009.28;5103863;28;20062;-78
2024/01/01 00:08:02;;;;;;;100.53;55.72;;;;;;;4.42;63.22;95012.00;5104273;28;20055;-81
2024/01/01 00:10:28;;;;;;;91.32;50.03;;;;;;;4.47;63.41;95003.44;5104514;28;20387;-85
2024/01/01 00:12:53;;;;;;;98.00;53.60;;;;;;;4.45;62.98;95008.50;5104451;28;20043;-84
2024/01/01 00:15:19;;;;;;;96.63;53.30;;;;;;;4.46;62.03;95012.75;5103974;28;20118;-83
2024/01/01 00:17:44;;;;;;;85.43;50.13;;;;;;;4.44;62.49;95012.38;5105842;28;20079;-84
2024/01/01 00:20:13;;;;;;;82.10;48.42;;;;;;;4.40;62.75;95008.13;5105657;28;20457;-83
2024/01/01 00:22:38;;;;;;;87.22;48.20;;;;;;;4.38;62.86;95010.47;5106377;28;20050;-84
2024/01/01 00:25:04;;;;;;;77.10;44.15;;;;;;;4.41;63.04;95021.31;5106228;28;20398;-83
2024/01/01 00:27:33;;;;;;;80.75;43.85;;;;;;;4.29;63.93;95016.31;5107300;28;20107;-84
2024/01/01 00:29:58;;;;;;;87.55;47.85;;;;;;;4.36;64.01;95013.59;5122517;28;20047;-83
2024/01/01 00:32:24;;;;;;;77.55;45.67;;;;;;;4.39;63.78;95018.22;5122292;28;20259;-83
2024/01/01 00:34:49;;;;;;;84.40;45.22;;;;;;;4.36;64.05;95018.22;5121745;28;20043;-84
2024/01/01 00:37:14;;;;;;;89.18;49.38;;;;;;;4.42;63.74;95022.91;5124550;28;20028;-83
2024/01/01 00:39:40;;;;;;;97.03;50.80;;;;;;;4.39;63.46;95031.06;5117821;28;20125;-84
2024/01/01 00:42:06;;;;;;;104.63;54.28;;;;;;;4.35;63.23;95019.41;5107819;28;20036;-84
2024/01/01 00:44:32;;;;;;;99.63;53.22;;;;;;;4.36;63.85;95019.03;5109886;28;20428;-85
2024/01/01 00:46:58;;;;;;;85.53;46.45;;;;;;;4.25;64.17;95012.84;5108766;28;20023;-84
2024/01/01 00:49:23;;;;;;;97.63;47.80;;;;;;;4.36;64.20;95019.03;5109445;28;20020;-84
2024/01/01 00:51:49;;;;;;;122.18;57.67;;;;;;;4.40;63.50;95010.84;5107677;28;20406;-85
2024/01/01 00:54:14;;;;;;;110.32;55.47;;;;;;;4.34;63.00;95015.91;5108814;28;20046;-84
2024/01/01 00:56:40;;;;;;;84.55;45.13;;;;;;;4.36;63.76;95005.44;5109328;28;20137;-85
2024/01/01 00:59:05;;;;;;;66.90;38.35;;;;;;;4.31;63.95;94997.66;5109130;28;20110;-84
2024/01/01 01:01:31;;;;;;;75.30;39.95;;;;;;;4.38;63.85;95008.53;5109153;28;20394;-83
2024/01/01 01:03:56;;;;;;;59.72;33.22;;;;;;;4.36;64.21;95007.34;5108595;28;20098;-86
2024/01/01 01:06:22;;;;;;;63.15;33.67;;;;;;;4.34;64.26;94999.59;5108001;28;20114;-85
2024/01/01 01:08:47;;;;;;;59.05;34.10;;;;;;;4.35;63.52;95001.13;5108718;28;20072;-85
2024/01/01 01:11:13;;;;;;;61.85;34.95;;;;;;;4.39;63.18;95004.63;5108980;28;20084;-85
2024/01/01 01:13:38;;;;;;;61.35;33.10;;;;;;;4.32;63.03;94995.72;5108911;28;20031;-84
2024/01/01 01:16:04;;;;;;;55.13;31.83;;;;;;;4.38;63.76;95005.81;5108059;28;20049;-85
2024/01/01 01:18:29;;;;;;;84.80;48.33;;;;;;;4.34;64.87;94993.38;5109158;28;20023;-85
2024/01/01 01:20:54;;;;;;;77.22;43.38;;;;;;;4.36;64.90;94989.09;5108610;27;20439;-86
2024/01/01 01:23:20;;;;;;;71.45;41.75;;;;;;;4.28;64.89;94984.06;5108733;28;20426;-85
2024/01/01 01:25:45;;;;;;;84.85;47.88;;;;;;;4.32;64.82;94979.41;5108632;28;20042;-84
2024/01/01 01:28:11;;;;;;;89.03;46.03;;;;;;;4.34;64.71;94983.25;5108343;28;20050;-84
2024/01/01 01:30:36;;;;;;;83.50;47.35;;;;;;;4.33;64.56;94989.09;5108442;28;20448;-84
2024/01/01 01:33:02;;;;;;;80.78;44.75;;;;;;;4.28;64.19;94981.34;5108109;28;20103;-84
2024/01/01 01:35:27;;;;;;;71.35;41.40;;;;;;;4.26;63.64;94979.03;5108382;28;20477;-84
2024/01/01 01:37:52;;;;;;;76.28;45.58;;;;;;;4.26;63.78;94982.53;5106430;28;20024;-84
2024/01/01 01:40:18;;;;;;;71.78;42.60;;;;;;;4.28;63.45;94986.78;5108423;28;20111;-84
2024/01/01 01:42:47;;;;;;;75.63;41.42;;;;;;;4.21;64.56;94976.72;5107939;28;20031;-83
2024/01/01 01:45:13;;;;;;;81.30;41.83;;;;;;;4.22;65.83;94986.41;5106451;28;20039;-84
2024/01/01 01:47:39;;;;;;;77.50;41.38;;;;;;;4.22;64.83;94980.97;5107962;28;20088;-85
2024/01/01 01:50:06;;;;;;;72.28;38.90;;;;;;;4.24;65.49;94973.97;5106365;28;20028;-85
2024/01/01 01:52:33;;;;;;;70.38;40.13;;;;;;;4.27;64.03;94986.00;5106809;28;20031;-85
2024/01/01 01:54:58;;;;;;;66.25;37.42;;;;;;;4.24;64.55;94973.97;5105063;28;20031;-86
2024/01/01 01:57:24;;;;;;;63.47;37.50;;;;;;;4.29;64.58;94982.88;5106771;28;20027;-85
2024/01/01 01:59:49;;;;;;;70.18;38.95;;;;;;;4.27;64.19;94986.00;5107689;28;20031;-83
2024/01/01 02:02:15;;;;;;;67.25;36.85;;;;;;;4.30;64.61;94992.59;5107920;28;20516;-84
2024/01/01 02:04:41;;;;;;;59.92;36.53;;;;;;;4.31;63.93;94992.22;5105859;28;20509;-84
2024/01/01 02:07:06;;;;;;;62.42;36.38;;;;;;;4.33;63.16;94998.03;5107651;28;20032;-84
2024/01/01 02:09:32;;;;;;;56.08;33.00;;;;;;;4.26;63.37;95001.56;5107823;28;20027;-84
2024/01/01 02:11:57;;;;;;;58.75;34.75;;;;;;;4.21;63.23;94982.94;5107134;28;20040;-85
2024/01/01 02:14:25;;;;;;;62.15;35.28;;;;;;;4.19;63.29;94993.44;5107495;28;20036;-84
2024/01/01 02:16:51;;;;;;;65.68;35.00;;;;;;;4.21;63.20;94993.03;5105518;28;20028;-84
2024/01/01 02:19:20;;;;;;;57.58;33.97;;;;;;;4.23;63.12;94994.19;5107717;28;20030;-84
2024/01/01 02:21:46;;;;;;;56.95;32.35;;;;;;;4.25;63.02;94991.09;5107373;28;20092;-85
2024/01/01 02:24:12;;;;;;;54.47;32.05;;;;;;;4.25;63.16;94999.25;5107002;28;20035;-83
2024/01/01 02:26:37;;;;;;;59.72;34.67;;;;;;;4.22;63.07;94995.34;5107465;28;20114;-85
2024/01/01 02:29:02;;;;;;;60.58;32.60;;;;;;;4.19;63.11;94981.78;5107079;28;20096;-85
2024/01/01 02:31:28;;;;;;;56.95;35.33;;;;;;;4.18;63.37;95000.03;5107348;28;20062;-84
2024/01/01 02:33:53;;;;;;;61.72;36.35;;;;;;;4.19;63.12;94992.66;5106846;28;20114;-84
2024/01/01 02:36:19;;;;;;;59.97;34.42;;;;;;;4.17;63.25;94989.53;5107286;28;20355;-84
2024/01/01 02:38:44;;;;;;;67.68;38.58;;;;;;;4.15;63.04;94995.38;5106979;28;20038;-84
2024/01/01 02:41:09;;;;;;;59.22;35.05;;;;;;;4.08;63.70;94989.97;5105718;28;20042;-84
2024/01/01 02:43:35;;;;;;;64.28;35.90;;;;;;;3.84;64.38;94990.78;5106619;28;20039;-85
2024/01/01 02:46:00;;;;;;;61.88;35.67;;;;;;;3.86;64.61;94981.09;5106675;28;20490;-85
2024/01/01 02:48:26;;;;;;;79.53;41.95;;;;;;;3.89;63.91;94990.41;5106987;28;20024;-85
2024/01/01 02:50:51;;;;;;;61.90;36.53;;;;;;;3.81;64.50;94978.78;5106528;28;20035;-85
2024/01/01 02:53:17;;;;;;;74.18;39.88;;;;;;;3.86;64.08;94983.81;5106881;28;20032;-84
2024/01/01 02:55:43;;;;;;;63.42;34.35;;;;;;;3.67;65.16;94971.44;5106638;28;20027;-83
2024/01/01 02:58:08;;;;;;;63.53;35.63;;;;;;;3.67;65.34;94973.34;5108579;28;20102;-84
2024/01/01 03:00:34;;;;;;;58.47;35.72;;;;;;;3.76;65.60;94970.22;5108151;28;20038;-84
2024/01/01 03:02:59;;;;;;;55.08;32.55;;;;;;;3.81;65.12;94972.56;5106955;28;20028;-84
2024/01/01 03:05:25;;;;;;;57.50;32.15;;;;;;;3.79;65.07;94975.69;5108106;28;20104;-84
2024/01/01 03:07:51;;;;;;;60.10;36.05;;;;;;;3.75;64.50;94960.53;5106233;28;20134;-83
2024/01/01 03:10:17;;;;;;;69.88;36.97;;;;;;;3.76;64.22;94949.25;5106977;28;20030;-84
2024/01/01 03:12:43;;;;;;;71.43;38.35;;;;;;;3.75;64.10;94960.53;5106826;28;20398;-83
2024/01/01 03:15:09;;;;;;;62.33;36.35;;;;;;;3.74;64.34;94948.88;5104946;28;20052;-84
2024/01/01 03:17:34;;;;;;;61.80;34.03;;;;;;;3.75;64.72;94946.94;5106434;28;20016;-84
2024/01/01 03:20:00;;;;;;;66.70;35.63;;;;;;;3.79;64.75;94945.00;5106561;28;20020;-84
2024/01/01 03:22:26;;;;;;;74.57;39.17;;;;;;;3.73;65.13;94944.63;5104875;28;20073;-84
2024/01/01 03:24:51;;;;;;;61.92;37.40;;;;;;;3.71;65.07;94949.66;5106376;28;20039;-83
2024/01/01 03:27:17;;;;;;;91.38;48.00;;;;;;;3.72;65.21;94943.81;5106300;28;20032;-83
2024/01/01 03:29:42;;;;;;;92.82;47.58;;;;;;;3.69;65.65;94931.03;5104679;28;20020;-85
2024/01/01 03:32:08;;;;;;;81.28;44.70;;;;;;;3.67;65.59;94933.38;5106322;28;20069;-85
2024/01/01 03:34:34;;;;;;;83.70;46.38;;;;;;;3.71;65.60;94934.09;5105933;28;20091;-84
2024/01/01 03:37:00;;;;;;;87.60;45.75;;;;;;;3.71;65.01;94930.63;5106053;28;20031;-84
2024/01/01 03:39:25;;;;;;;89.70;45.95;;;;;;;3.62;64.96;94913.97;5104669;28;20215;-84
2024/01/01 03:41:51;;;;;;;89.25;49.88;;;;;;;3.62;65.18;94927.56;5106578;28;20028;-84
2024/01/01 03:44:16;;;;;;;98.07;48.72;;;;;;;3.66;64.87;94928.28;5105885;28;20043;-82
2024/01/01 03:46:42;;;;;;;105.40;49.20;;;;;;;3.65;65.30;94924.81;5106143;28;20032;-83
2024/01/01 03:49:07;;;;;;;98.45;47.90;;;;;;;3.66;64.75;94928.28;5105987;28;20020;-83
2024/01/01 03:51:33;;;;;;;98.30;49.28;;;;;;;3.67;64.77;94929.84;5106203;28;20011;-84
2024/01/01 03:53:58;;;;;;;98.85;47.80;;;;;;;3.61;64.92;94926.78;5105883;28;20051;-84
2024/01/01 03:56:24;;;;;;;87.90;46.33;;;;;;;3.59;64.70;94925.59;5105792;28;20100;-84
2024/01/01 03:58:49;;;;;;;96.38;49.35;;;;;;;3.59;64.26;94912.00;5106434;28;20078;-84
2024/01/01 04:01:15;;;;;;;95.72;47.75;;;;;;;3.51;64.80;94911.25;5105676;28;20413;-84
2024/01/01 04:03:40;;;;;;;91.72;47.10;;;;;;;3.56;64.53;94912.81;5105800;28;20643;-85
2024/01/01 04:06:07;;;;;;;100.97;49.97;;;;;;;3.49;64.47;94921.72;5104232;28;20020;-85
2024/01/01 04:08:32;;;;;;;89.68;48.72;;;;;;;3.50;64.29;94927.94;5105628;28;20027;-84
2024/01/01 04:10:58;;;;;;;97.95;50.15;;;;;;;3.48;64.12;94928.34;5105856;28;20024;-84
2024/01/01 04:13:23;;;;;;;91.15;46.80;;;;;;;3.24;64.13;94891.13;5105628;28;20046;-84
2024/01/01 04:15:48;;;;;;;92.15;45.90;;;;;;;3.48;64.38;94928.34;5105870;28;20134;-85
2024/01/01 04:18:14;;;;;;;86.88;48.33;;;;;;;3.41;64.42;94929.13;5105817;28;20027;-84
2024/01/01 04:20:39;;;;;;;92.53;49.75;;;;;;;3.41;64.68;94931.06;5109852;28;20059;-84
2024/01/01 04:23:04;;;;;;;89.70;49.28;;;;;;;3.43;64.62;94929.50;5109315;28;20023;-83
2024/01/01 04:25:30;;;;;;;86.63;47.63;;;;;;;3.46;64.13;94938.84;5109599;28;20030;-84
2024/01/01 04:27:55;;;;;;;100.03;51.20;;;;;;;3.38;64.16;94934.56;5110023;28;20486;-84
2024/01/01 04:30:21;;;;;;;107.43;59.47;;;;;;;3.32;64.84;94936.13;5109400;28;20509;-85
2024/01/01 04:32:46;;;;;;;110.03;57.42;;;;;;;3.36;64.68;94945.06;5109335;28;20032;-85
2024/01/01 04:35:12;;;;;;;100.70;57.83;;;;;;;3.30;64.90;94936.50;5109326;28;20034;-84
2024/01/01 04:37:37;;;;;;;102.32;58.25;;;;;;;3.30;64.76;94949.31;5109745;28;20035;-83
2024/01/01 04:40:04;;;;;;;110.65;59.47;;;;;;;3.27;64.62;94944.66;5109338;28;20015;-84
2024/01/01 04:42:30;;;;;;;117.63;63.03;;;;;;;3.22;64.90;94942.34;5109583;28;20474;-82
2024/01/01 04:44:55;;;;;;;114.80;59.05;;;;;;;3.22;64.85;94934.97;5109681;28;20019;-84
2024/01/01 04:47:22;;;;;;;121.45;60.10;;;;;;;3.19;64.71;94928.38;5108774;28;20473;-84
2024/01/01 04:49:47;;;;;;;114.85;60.15;;;;;;;3.20;64.60;94924.47;5107848;28;20032;-84
2024/01/01 04:52:13;;;;;;;129.10;66.95;;;;;;;3.24;64.34;94924.50;5108599;28;20037;-81
2024/01/01 04:54:38;;;;;;;139.55;73.95;;;;;;;3.11;64.14;94909.75;5109247;28;20032;-83
2024/01/01 04:57:04;;;;;;;149.95;79.38;;;;;;;3.25;64.14;94931.47;5108661;28;20024;-83
2024/01/01 04:59:29;;;;;;;163.18;85.20;;;;;;;3.27;64.15;94928.34;5109502;28;20570;-83
2024/01/01 05:01:55;;;;;;;147.15;84.72;;;;;;;3.28;64.08;94927.22;5107364;28;20148;-83
2024/01/01 05:04:20;;;;;;;150.48;83.65;;;;;;;3.26;64.11;94929.53;5108812;28;20085;-83
2024/01/01 05:06:46;;;;;;;156.32;83.47;;;;;;;3.23;64.15;94925.66;5109367;28;20509;-83
2024/01/01 05:09:11;;;;;;;166.63;83.22;;;;;;;3.17;63.92;94919.84;5108387;28;20027;-83
2024/01/01 05:11:40;;;;;;;156.27;81.03;;;;;;;3.20;63.62;94929.16;5107538;28;20027;-83
2024/01/01 05:14:06;;;;;;;146.38;80.07;;;;;;;3.13;63.61;94927.22;5108095;27;20051;-84
2024/01/01 05:16:33;;;;;;;162.30;82.47;;;;;;;3.12;63.82;94927.59;5108945;28;20015;-84
2024/01/01 05:18:59;;;;;;;154.85;81.30;;;;;;;3.07;63.86;94908.97;5108239;27;20539;-82
2024/01/01 05:21:24;;;;;;;160.48;82.53;;;;;;;3.13;63.61;94924.50;5108591;28;20027;-83
2024/01/01 05:23:49;;;;;;;156.52;80.50;;;;;;;3.15;63.85;94921.38;5108784;28;20039;-85
2024/01/01 05:26:15;;;;;;;166.18;86.05;;;;;;;3.11;63.60;94921.41;5108509;28;20023;-82
2024/01/01 05:28:40;;;;;;;159.50;83.30;;;;;;;3.01;63.99;94915.97;5108467;28;20567;-84
2024/01/01 05:31:06;;;;;;;166.40;82.90;;;;;;;2.97;64.34;94917.91;5107857;28;20423;-83
2024/01/01 05:33:31;;;;;;;160.52;83.63;;;;;;;2.93;64.09;94910.53;5106967;28;20118;-83
2024/01/01 05:35:56;;;;;;;166.00;80.45;;;;;;;2.86;64.04;94907.03;5107945;28;20043;-80
2024/01/01 05:38:22;;;;;;;154.15;79.88;;;;;;;2.87;64.20;94905.91;5106734;28;20486;-81
2024/01/01 05:40:47;;;;;;;152.93;78.95;;;;;;;2.77;64.01;94896.56;5107960;28;20500;-81
2024/01/01 05:43:13;;;;;;;153.27;76.90;;;;;;;2.82;63.85;94909.75;5106467;28;20031;-81
2024/01/01 05:45:39;;;;;;;140.15;73.72;;;;;;;2.77;63.91;94904.72;5089832;28;20583;-82
2024/01/01 05:48:05;;;;;;;124.03;62.45;;;;;;;2.77;63.79;94906.66;5107790;28;20106;-82
2024/01/01 05:50:30;;;;;;;116.20;54.95;;;;;;;2.73;63.71;94908.59;5106792;28;20035;-83
2024/01/01 05:52:56;;;;;;;101.82;53.55;;;;;;;2.70;63.96;94921.00;5107734;28;20028;-82
2024/01/01 05:55:23;;;;;;;93.10;50.20;;;;;;;2.64;64.18;94917.13;5106707;28;20031;-83
2024/01/01 05:57:48;;;;;;;91.82;48.92;;;;;;;2.60;64.14;94905.47;5108726;28;20028;-83
2024/01/01 06:00:14;;;;;;;86.68;46.97;;;;;;;2.60;64.04;94900.06;5108294;27;20068;-83
2024/01/01 06:02:40;;;;;;;101.35;52.60;;;;;;;2.61;64.71;94909.75;5108641;28;20020;-83
2024/01/01 06:05:05;;;;;;;95.07;49.05;;;;;;;2.57;64.78;94909.72;5118366;28;20051;-83
2024/01/01 06:07:31;;;;;;;91.18;47.83;;;;;;;2.58;64.82;94910.50;5126742;28;20037;-83
2024/01/01 06:09:57;;;;;;;101.93;49.83;;;;;;;2.64;64.47;94903.56;5126006;28;20027;-83
2024/01/01 06:12:23;;;;;;;96.40;52.72;;;;;;;2.59;65.19;94893.06;5128158;28;20019;-82
2024/01/01 06:14:49;;;;;;;102.32;53.70;;;;;;;2.56;65.16;94891.91;5126170;28;20491;-84
2024/01/01 06:17:14;;;;;;;98.93;53.45;;;;;;;2.58;65.49;94900.44;5110067;28;20645;-82
2024/01/01 06:19:39;;;;;;;101.43;51.42;;;;;;;2.55;65.70;94895.00;5108933;28;20027;-82
2024/01/01 06:22:05;;;;;;;101.43;51.40;;;;;;;2.58;65.40;94908.59;5108493;28;20026;-81
2024/01/01 06:24:30;;;;;;;92.00;49.17;;;;;;;2.60;65.08;94889.97;5107469;28;20055;-82
2024/01/01 06:26:56;;;;;;;93.95;49.13;;;;;;;2.59;65.07;94903.94;5107515;28;20062;-83
2024/01/01 06:29:23;;;;;;;93.07;52.65;;;;;;;2.60;64.67;94891.91;5107244;28;20027;-82
2024/01/01 06:31:49;;;;;;;103.15;56.17;;;;;;;2.59;64.78;94907.41;5107041;28;20403;-82
2024/01/01 06:34:15;;;;;;;109.13;59.60;;;;;;;2.58;64.89;94905.88;5107104;28;20033;-82
2024/01/01 06:36:40;;;;;;;113.95;60.20;;;;;;;2.62;65.01;94897.72;5106865;28;20361;-82
2024/01/01 06:39:05;;;;;;;108.30;58.03;;;;;;;2.56;65.02;94899.25;5106989;28;20020;-83
2024/01/01 06:41:31;;;;;;;119.25;60.85;;;;;;;2.59;65.39;94887.66;5104986;28;20026;-83
2024/01/01 06:43:56;;;;;;;102.70;56.47;;;;;;;2.67;65.61;94881.06;5106674;28;20080;-84
2024/01/01 06:46:21;;;;;;;107.50;58.78;;;;;;;2.73;65.40;94884.16;5106951;28;20035;-84
2024/01/01 06:48:47;;;;;;;109.72;57.60;;;;;;;2.70;65.68;94885.72;5106933;27;20628;-84
2024/01/01 06:51:12;;;;;;;120.10;58.13;;;;;;;2.72;65.57;94891.53;5107195;28;20058;-83
2024/01/01 06:53:38;;;;;;;114.15;60.28;;;;;;;2.74;65.78;94891.91;5106378;28;20028;-83
2024/01/01 06:56:04;;;;;;;118.47;58.60;;;;;;;2.82;65.36;94893.47;5105429;28;20058;-83
2024/01/01 06:58:29;;;;;;;113.18;58.33;;;;;;;2.88;65.48;94902.00;5106863;28;20031;-82
2024/01/01 07:00:54;;;;;;;112.13;58.85;;;;;;;2.93;65.18;94905.13;5105512;28;20020;-81
2024/01/01 07:03:20;;;;;;;100.60;55.95;;;;;;;3.04;64.84;94907.84;5105014;28;20107;-81
2024/01/01 07:05:45;;;;;;;108.72;57.33;;;;;;;3.10;64.82;94903.56;5106637;28;20027;-82
2024/01/01 07:08:12;;;;;;;105.35;56.33;;;;;;;3.20;64.48;94905.47;5104994;28;20031;-82
2024/01/01 07:10:37;;;;;;;108.72;55.00;;;;;;;3.26;64.09;94888.78;5106272;28;20124;-82
2024/01/01 07:13:03;;;;;;;110.13;57.97;;;;;;;3.38;63.55;94883.72;5105248;28;20065;-82
2024/01/01 07:15:28;;;;;;;101.95;58.15;;;;;;;3.44;63.12;94886.78;5104081;28;20165;-83
2024/01/01 07:17:53;;;;;;;108.13;61.65;;;;;;;3.54;63.06;94886.00;5105420;28;20058;-83
2024/01/01 07:20:19;;;;;;;109.70;60.72;;;;;;;3.59;62.92;94898.41;5105607;28;20034;-84
2024/01/01 07:22:44;;;;;;;107.00;61.17;;;;;;;3.68;62.78;94898.78;5105534;28;20027;-87
2024/01/01 07:25:09;;;;;;;111.40;64.32;;;;;;;3.83;62.38;94902.22;5105786;28;20031;-84
2024/01/01 07:27:35;;;;;;;121.25;65.13;;;;;;;3.97;62.06;94894.03;5107318;28;20031;-83
2024/01/01 07:30:03;;;;;;;106.53;61.42;;;;;;;4.08;61.63;94896.69;5106137;28;20031;-83
2024/01/01 07:32:29;;;;;;;107.88;63.42;;;;;;;4.22;61.44;94893.91;5107847;28;20513;-84
2024/01/01 07:34:56;;;;;;;119.78;65.65;;;;;;;4.43;61.36;94887.56;5105650;28;20023;-85
2024/01/01 07:37:21;;;;;;;114.68;65.35;;;;;;;4.53;61.36;94887.50;5105691;28;20024;-84
2024/01/01 07:39:47;;;;;;;120.07;67.38;;;;;;;4.72;61.05;94899.81;5105316;28;20032;-84
2024/01/01 07:42:12;;;;;;;121.22;68.35;;;;;;;4.94;60.77;94899.69;5103622;28;20066;-84
2024/01/01 07:44:37;;;;;;;116.50;66.10;;;;;;;5.15;59.71;94887.81;5103891;28;20032;-84
2024/01/01 07:47:03;;;;;;;119.75;66.78;;;;;;;5.34;59.61;94898.16;5103885;28;20034;-82
2024/01/01 07:49:28;;;;;;;117.07;65.30;;;;;;;5.46;59.07;94913.25;5104869;28;20220;-83
2024/01/01 07:51:54;;;;;;;112.82;66.97;;;;;;;5.64;58.58;94915.78;5105124;28;20028;-82
2024/01/01 07:54:19;;;;;;;115.72;68.55;;;;;;;5.72;58.08;94917.25;5103293;28;20031;-83
2024/01/01 07:56:47;;;;;;;124.90;70.00;;;;;;;5.78;57.53;94926.53;5104901;28;20464;-82
2024/01/01 07:59:12;;;;;;;113.72;63.38;;;;;;;5.85;57.10;94931.94;5103243;28;20028;-82
2024/01/01 08:01:38;;;;;;;95.82;57.20;;;;;;;5.96;56.36;94935.34;5104902;28;20390;-82
2024/01/01 08:04:04;;;;;;;82.55;50.53;;;;;;;6.03;55.60;94932.53;5103853;28;20026;-81
2024/01/01 08:06:29;;;;;;;77.07;48.80;;;;;;;6.15;55.07;94916.81;5103962;28;20024;-82
2024/01/01 08:08:55;;;;;;;77.10;47.05;;;;;;;6.25;55.07;94918.63;5104799;28;20039;-81
2024/01/01 08:11:20;;;;;;;71.63;43.75;;;;;;;6.33;54.48;94912.69;5104734;28;20640;-80
2024/01/01 08:13:45;;;;;;;69.57;43.67;;;;;;;6.37;54.41;94915.38;5103944;28;20020;-81
2024/01/01 08:16:26;;;;;;;84.30;46.30;;;;;;;6.53;53.91;94909.28;5064903;28;20390;-81
2024/01/01 08:18:53;;;;;;;73.97;46.22;;;;;;;6.69;53.59;94914.16;5064759;28;20534;-82
2024/01/01 08:21:18;;;;;;;80.03;46.45;;;;;;;6.79;53.73;94913.22;5064121;28;20558;-81
2024/01/01 08:23:44;;;;;;;84.72;50.67;;;;;;;6.88;53.57;94908.81;5065124;28;20033;-82
2024/01/01 08:26:10;;;;;;;80.57;49.47;;;;;;;6.88;53.66;94913.47;5062979;28;20059;-81
2024/01/01 08:28:35;;;;;;;83.80;50.83;;;;;;;6.93;53.53;94918.47;5064916;28;20060;-82
2024/01/01 08:31:00;;;;;;;77.20;49.65;;;;;;;6.88;53.67;94921.66;5063238;28;20043;-78
2024/01/01 08:33:26;;;;;;;82.85;50.63;;;;;;;6.83;53.92;94922.94;5064315;28;20140;-78
2024/01/01 08:35:53;;;;;;;82.22;49.55;;;;;;;6.78;54.01;94917.16;5063365;28;20056;-78
2024/01/01 08:38:19;;;;;;;72.18;46.53;;;;;;;6.77;54.07;94932.78;5062509;28;20493;-80
2024/01/01 08:40:44;;;;;;;79.05;47.00;;;;;;;6.78;54.20;94933.56;5064308;28;20025;-81
2024/01/01 08:43:10;;;;;;;76.13;46.30;;;;;;;6.78;54.20;94922.63;5062720;28;20317;-81
2024/01/01 08:45:35;;;;;;;73.53;45.72;;;;;;;6.74;54.16;94932.81;5064611;28;20028;-80
2024/01/01 08:48:00;;;;;;;76.25;47.30;;;;;;;6.74;54.17;94927.34;5062690;28;20029;-81
2024/01/01 08:50:26;;;;;;;76.05;47.83;;;;;;;6.74;54.32;94917.19;5064546;28;20124;-81
2024/01/01 08:52:51;;;;;;;78.55;48.47;;;;;;;6.77;54.57;94924.59;5064252;28;20084;-79
2024/01/01 08:55:17;;;;;;;73.82;44.35;;;;;;;6.72;54.80;94921.53;5063799;28;20503;-79
2024/01/01 08:57:42;;;;;;;68.40;44.78;;;;;;;6.59;54.73;94913.88;5063558;28;20025;-82
2024/01/01 09:00:08;;;;;;;82.50;46.95;;;;;;;6.58;54.95;94908.84;5062871;28;20028;-79
2024/01/01 09:02:34;;;;;;;76.15;46.65;;;;;;;6.68;54.96;94907.91;5064054;28;20028;-79
2024/01/01 09:04:59;;;;;;;74.43;46.65;;;;;;;6.70;54.80;94915.69;5062573;28;20091;-79
2024/01/01 09:07:24;;;;;;;76.90;46.20;;;;;;;6.75;54.85;94910.53;5063588;28;20032;-80
2024/01/01 09:09:50;;;;;;;82.35;48.88;;;;;;;6.80;54.92;94895.66;5063344;28;20104;-80
2024/01/01 09:12:15;;;;;;;81.63;49.08;;;;;;;6.89;54.92;94890.44;5061973;28;20029;-80
2024/01/01 09:14:41;;;;;;;82.32;49.83;;;;;;;7.09;54.50;94893.25;5061049;28;20060;-80
2024/01/01 09:17:07;;;;;;;84.25;50.25;;;;;;;7.52;53.74;94898.00;5062954;28;20029;-80
2024/01/01 09:19:33;;;;;;;77.95;48.65;;;;;;;7.84;52.98;94895.44;5063406;28;20044;-80
2024/01/01 09:21:59;;;;;;;78.43;47.22;;;;;;;7.84;52.96;94894.69;5062313;28;20522;-79
2024/01/01 09:24:24;;;;;;;80.30;48.58;;;;;;;7.86;52.98;94884.09;5061941;28;20108;-79
2024/01/01 09:26:50;;;;;;;77.78;48.60;;;;;;;8.08;52.59;94881.69;5054016;28;20458;-80
2024/01/01 09:29:16;;;;;;;73.32;46.05;;;;;;;8.14;52.57;94864.38;5050063;28;20100;-80
2024/01/01 09:31:41;;;;;;;71.97;42.80;;;;;;;8.35;52.31;94860.41;5048595;28;20108;-80
2024/01/01 09:34:07;;;;;;;69.10;42.58;;;;;;;8.31;52.21;94862.44;5048575;28;20396;-80
2024/01/01 09:36:34;;;;;;;71.22;42.70;;;;;;;8.30;52.41;94865.59;5049188;28;20021;-80
2024/01/01 09:38:59;;;;;;;63.17;42.40;;;;;;;8.27;52.52;94866.47;5031038;28;20525;-80
2024/01/01 09:41:26;;;;;;;68.25;41.60;;;;;;;8.18;52.94;94867.78;5049957;28;20024;-79
2024/01/01 09:43:55;;;;;;;74.30;42.15;;;;;;;8.17;53.08;94860.00;5048550;28;20024;-79
2024/01/01 09:46:21;;;;;;;65.63;41.97;;;;;;;8.09;53.20;94853.91;5048349;28;20025;-79
2024/01/01 09:48:47;;;;;;;72.43;44.58;;;;;;;8.07;53.35;94852.78;5048427;28;20031;-79
2024/01/01 09:51:13;;;;;;;71.90;44.78;;;;;;;8.09;53.29;94851.19;5050229;28;20370;-81
2024/01/01 09:53:38;;;;;;;71.70;43.13;;;;;;;8.11;53.26;94853.47;5048611;28;20479;-80
2024/01/01 09:56:04;;;;;;;72.53;44.45;;;;;;;8.20;53.22;94854.47;5047765;28;20087;-79
2024/01/01 09:58:41;;;;;;;69.47;43.38;;;;;;;8.27;53.20;94856.28;5049810;28;20029;-79
2024/01/01 10:01:18;;;;;;;73.82;43.08;;;;;;;8.27;53.24;94864.50;5046859;28;20060;-79
2024/01/01 10:03:45;;;;;;;73.38;45.05;;;;;;;8.34;52.97;94858.09;5048334;28;20032;-79
2024/01/01 10:06:13;;;;;;;72.10;44.28;;;;;;;8.53;52.53;94851.81;5030182;28;20033;-79
2024/01/01 10:08:39;;;;;;;68.25;44.85;;;;;;;9.05;51.52;94837.28;5049854;28;20029;-80
2024/01/01 10:11:24;;;;;;;70.63;42.47;;;;;;;9.12;51.39;94828.91;5047923;28;20403;-86
2024/01/01 10:13:50;;;;;;;67.78;43.25;;;;;;;9.20;51.21;94830.25;5045130;28;20033;-80
2024/01/01 10:16:26;;;;;;;75.43;45.13;;;;;;;9.27;50.91;94813.63;5027851;28;20073;-82
2024/01/01 10:18:56;;;;;;;75.95;46.42;;;;;;;9.51;50.58;94816.13;5028034;28;20029;-78
2024/01/01 10:21:30;;;;;;;86.90;51.70;;;;;;;9.73;50.31;94805.34;5029103;28;20080;-80
2024/01/01 10:23:57;;;;;;;95.15;55.75;;;;;;;10.32;49.01;94801.31;5028583;28;20080;-82
2024/01/01 10:26:23;;;;;;;86.13;54.20;;;;;;;10.30;48.82;94787.28;5026892;28;20033;-77
2024/01/01 10:28:49;;;;;;;82.80;50.92;;;;;;;10.60;48.04;94791.44;5029474;28;20117;-85
2024/01/01 10:31:15;;;;;;;83.95;50.70;;;;;;;11.19;46.70;94795.47;5028257;28;20025;-80
2024/01/01 10:33:41;;;;;;;77.30;50.20;;;;;;;11.30;46.26;94798.63;5027976;28;20049;-81
2024/01/01 10:36:07;;;;;;;78.25;50.03;;;;;;;11.27;46.22;94796.75;5027700;28;20036;-81
2024/01/01 10:38:33;;;;;;;78.55;48.50;;;;;;;11.34;46.22;94799.25;5026448;28;20037;-80
2024/01/01 10:40:59;;;;;;;83.50;51.92;;;;;;;11.52;45.92;94797.88;5026355;28;20095;-80
2024/01/01 10:43:28;;;;;;;80.10;51.97;;;;;;;11.54;45.61;94792.72;5028507;28;20454;-80
2024/01/01 10:46:02;;;;;;;77.05;50.03;;;;;;;12.37;44.50;94791.28;5027489;28;20523;-79
2024/01/01 10:48:28;;;;;;;77.93;48.10;;;;;;;13.07;43.43;94791.69;5027519;28;20103;-77
2024/01/01 10:51:14;;;;;;;72.68;49.55;;;;;;;13.85;42.27;94782.13;5029184;28;20430;-77
2024/01/01 10:53:45;;;;;;;75.88;49.55;;;;;;;14.60;40.40;94785.81;5027125;28;20036;-80
2024/01/01 10:56:39;;;;;;;71.47;50.08;;;;;;;15.64;37.91;94780.81;5028794;28;20029;-79
2024/01/01 10:59:22;;;;;;;68.15;46.42;;;;;;;16.49;35.96;94775.56;5027435;28;20043;-80
2024/01/01 11:01:51;;;;;;;65.15;45.55;;;;;;;17.39;34.38;94776.91;5008999;28;20041;-78
2024/01/01 11:04:20;;;;;;;59.63;43.72;;;;;;;18.74;32.17;94768.00;5026924;28;20025;-78
2024/01/01 11:06:46;;;;;;;55.13;40.45;;;;;;;20.01;29.75;94772.00;5025654;28;20044;-78
2024/01/01 11:09:20;;;;;;;57.10;38.60;;;;;;;21.71;27.63;94774.28;5028189;28;20455;-80
2024/01/01 11:11:52;;;;;;;49.95;37.38;;;;;;;22.90;25.67;94770.31;5028174;28;20053;-77
2024/01/01 11:14:28;;;;;;;43.85;31.52;;;;;;;23.31;24.80;94753.38;5026239;28;20118;-78
2024/01/01 11:16:55;;;;;;;42.95;33.42;;;;;;;23.78;24.38;94752.38;5028122;28;20047;-78